ADDS METAR Data INFO
IDs: Format: Raw Decoded Include TAF

Data at: 1951 UTC 14 Aug 2018

KDNS 141935Z AUTO VRB06KT 8SM CLR 26/21 A2995 RMK AO2
KDNS 141915Z AUTO VRB05KT 8SM CLR 26/21 A2995 RMK AO2
KDNS 141855Z AUTO VRB04KT 9SM CLR 26/22 A2995 RMK AO2
KDNS 141835Z AUTO VRB05G11KT 8SM CLR 26/21 A2996 RMK AO2
KDNS 141815Z AUTO 15005G10KT 8SM CLR 26/21 A2996 RMK AO2
KDNS 141755Z AUTO 16008KT 9SM CLR 26/20 A2996 RMK AO2
KDNS 141735Z AUTO 19008KT 160V220 9SM CLR 26/22 A2997 RMK AO2
KDNS 141715Z AUTO 14007KT 8SM CLR 27/22 A2997 RMK AO2
KDNS 141655Z AUTO 13004KT 7SM CLR 27/23 A2996 RMK AO2
KDNS 141635Z AUTO 00000KT 9SM CLR 27/23 A2996 RMK AO2
KDNS 141615Z AUTO 09003KT 9SM CLR 27/22 A2996 RMK AO2
KDNS 141555Z AUTO 12003KT 9SM CLR 27/22 A2995 RMK AO2
KDNS 141535Z AUTO 10005KT 9SM CLR 27/22 A2995 RMK AO2
KDNS 141515Z AUTO 00000KT 8SM CLR 26/23 A2995 RMK AO2
KDNS 141455Z AUTO 00000KT 8SM CLR 25/23 A2995 RMK AO2
KDNS 141435Z AUTO 7SM 24/22 A2995 RMK AO2
KDNS 141415Z AUTO A2996 RMK AO2 PWINO
KDNS 141355Z AUTO 5SM BR CLR 22/22 A2996 RMK AO2
KDNS 141335Z AUTO 5SM BR CLR 22/21 A2996 RMK AO2
KDNS 141315Z AUTO 4SM BR CLR 22/21 A2996 RMK AO2
KDNS 141255Z AUTO 6SM BR CLR 21/21 A2996 RMK AO2
KDNS 141235Z AUTO 5SM BR FEW080 SCT090 21/21 A2996 RMK AO2
KDNS 141215Z AUTO 4SM BR FEW080 20/20 A2996 RMK AO2
KDNS 141155Z AUTO 4SM BR CLR 20/20 A2996 RMK AO2
KDNS 141135Z AUTO 5SM BR CLR 20/20 A2995 RMK AO2
KDNS 141115Z AUTO 00000KT 4SM BR CLR 20/20 A2995 RMK AO2
KDNS 141055Z AUTO 00000KT 5SM BR FEW070 FEW090 20/20 A2995 RMK AO2
KDNS 141035Z AUTO 00000KT 5SM BR CLR 20/20 A2995 RMK AO2
KDNS 141015Z AUTO 00000KT 6SM BR CLR 20/20 A2995 RMK AO2
KDNS 140955Z AUTO 02003KT 7SM CLR 21/20 A2995 RMK AO2
KDNS 140935Z AUTO 00000KT 8SM FEW085 21/20 A2995 RMK AO2
KDNS 140915Z AUTO 00000KT 7SM BKN085 21/21 A2995 RMK AO2
KDNS 140855Z AUTO 00000KT 6SM BR BKN085 21/21 A2996 RMK AO2
KDNS 140835Z AUTO 03003KT 7SM BKN085 21/21 A2996 RMK AO2
KDNS 140815Z AUTO 00000KT 7SM BKN080 21/21 A2996 RMK AO2
KDNS 140755Z AUTO 00000KT 6SM BR BKN080 21/21 A2997 RMK AO2
KDNS 140735Z AUTO 00000KT 8SM FEW080 BKN095 22/21 A2997 RMK AO2
KDNS 140715Z AUTO 00000KT 7SM OVC095 22/21 A2997 RMK AO2
KDNS 140655Z AUTO 00000KT 9SM SCT095 22/21 A2997 RMK AO2
KDNS 140635Z AUTO 00000KT 7SM FEW080 SCT095 22/21 A2998 RMK AO2
KDNS 140615Z AUTO 00000KT 8SM FEW060 BKN080 OVC090 23/21 A2998 RMK AO2
KDNS 140555Z AUTO 00000KT 9SM SCT060 OVC075 23/21 A2998 RMK AO2
KDNS 140535Z AUTO 00000KT 9SM BKN070 OVC075 23/21 A2998 RMK AO2
KDNS 140515Z AUTO 00000KT 10SM OVC065 23/21 A2998 RMK AO2
KDNS 140455Z AUTO 11004KT 9SM SCT050 OVC065 23/21 A2998 RMK AO2
KDNS 140435Z AUTO 12004KT 8SM OVC050 23/21 A2998 RMK AO2
KDNS 140415Z AUTO 23003KT 7SM BKN060 BKN070 22/21 A2998 RMK AO2
KDNS 140355Z AUTO 00000KT 8SM BKN065 BKN080 23/22 A2998 RMK AO2
KDNS 140335Z AUTO 00000KT 9SM SCT060 23/21 A2998 RMK AO2
KDNS 140315Z AUTO 07004KT 9SM CLR 23/22 A2999 RMK AO2
KDNS 140255Z AUTO 00000KT 10SM CLR 23/22 A2998 RMK AO2
KDNS 140235Z AUTO 00000KT 10SM CLR 24/22 A2998 RMK AO2
KDNS 140215Z AUTO 00000KT 10SM CLR 24/22 A2998 RMK AO2
KDNS 140155Z AUTO 10003KT 10SM CLR 24/23 A2998 RMK AO2
KDNS 140135Z AUTO 9SM CLR 25/23 A2998 RMK AO2
KDNS 140115Z AUTO 8SM CLR 26/23 A2998 RMK AO2
KDNS 140055Z AUTO 9SM CLR 26/23 A2997 RMK AO2
KDNS 140035Z AUTO 00000KT 9SM CLR 28/22 A2998 RMK AO2
KDNS 140015Z AUTO 15003KT 8SM CLR 28/22 A2998 RMK AO2
KDNS 132355Z AUTO 00000KT 6SM HZ CLR 29/22 A2998 RMK AO2
KDNS 132335Z AUTO 00000KT 9SM CLR 29/21 A2998 RMK AO2
KDNS 132315Z AUTO VRB04KT 10SM CLR 30/21 A2998 RMK AO2
KDNS 132255Z AUTO 00000KT 10SM CLR 31/21 A2998 RMK AO2
KDNS 132235Z AUTO VRB04KT 10SM CLR 31/21 A2998 RMK AO2
KDNS 132215Z AUTO 17006KT 9SM CLR 31/21 A2998 RMK AO2
KDNS 132155Z AUTO 17006KT 7SM CLR 31/21 A2999 RMK AO2
KDNS 132135Z AUTO 19006G11KT 8SM CLR 31/20 A3000 RMK AO2
KDNS 132115Z AUTO 16007G12KT 10SM CLR 31/20 A3000 RMK AO2
KDNS 132055Z AUTO 17010KT 9SM CLR 31/20 A3001 RMK AO2
KDNS 132035Z AUTO 17006G11KT 9SM CLR 31/21 A3001 RMK AO2
KDNS 132015Z AUTO 17006KT 9SM CLR 31/19 A3001 RMK AO2
KDNS 131955Z AUTO 17010KT 9SM CLR 31/19 A3002 RMK AO2
KDNS 131935Z AUTO 17007KT 8SM CLR 31/18 A3002 RMK AO2
KDNS 131915Z AUTO 16010G15KT 7SM CLR 31/19 A3003 RMK AO2
KDNS 131855Z AUTO 15007KT 130V190 9SM CLR 31/20 A3003 RMK AO2
KDNS 131835Z AUTO 16008KT 8SM CLR 31/21 A3004 RMK AO2
KDNS 131815Z AUTO 14007KT 9SM CLR 31/20 A3004 RMK AO2
KDNS 131755Z AUTO 15008KT 8SM CLR 30/20 A3004 RMK AO2
KDNS 131735Z AUTO 15006KT 8SM CLR 30/20 A3005 RMK AO2
KDNS 131715Z AUTO VRB04KT 9SM CLR 30/21 A3005 RMK AO2
KDNS 131655Z AUTO 00000KT 8SM CLR 29/21 A3006 RMK AO2
KDNS 131635Z AUTO 14003KT 8SM CLR 28/21 A3006 RMK AO2
KDNS 131615Z AUTO VRB03KT 8SM CLR 28/21 A3007 RMK AO2
KDNS 131555Z AUTO VRB04KT 8SM CLR 27/21 A3007 RMK AO2
KDNS 131535Z AUTO VRB03KT 10SM CLR 26/20 A3007 RMK AO2
KDNS 131515Z AUTO VRB03KT 9SM CLR 25/19 A3007 RMK AO2
KDNS 131455Z AUTO 19004KT 9SM CLR 25/19 A3007 RMK AO2
KDNS 131435Z AUTO VRB03KT 10SM CLR 24/19 A3008 RMK AO2
KDNS 131415Z AUTO VRB04KT 9SM CLR 24/18 A3008 RMK AO2
KDNS 131355Z AUTO 15004KT 10SM FEW070 23/18 A3008 RMK AO2
KDNS 131335Z AUTO 00000KT 9SM SCT070 23/17 A3008 RMK AO2
KDNS 131315Z AUTO 00000KT 10SM FEW070 22/17 A3009 RMK AO2
KDNS 131255Z AUTO 00000KT 9SM CLR 22/17 A3009 RMK AO2
KDNS 131235Z AUTO 00000KT 9SM CLR 21/17 A3009 RMK AO2
KDNS 131215Z AUTO 00000KT 9SM CLR 19/16 A3008 RMK AO2
KDNS 131155Z AUTO 00000KT 10SM CLR 18/16 A3009 RMK AO2
KDNS 131135Z AUTO 00000KT 10SM CLR 18/16 A3008 RMK AO2
KDNS 131115Z AUTO 00000KT 10SM CLR 19/16 A3008 RMK AO2
KDNS 131055Z AUTO 00000KT 10SM CLR 19/16 A3008 RMK AO2
KDNS 131035Z AUTO 15003KT 10SM CLR 20/16 A3008 RMK AO2
KDNS 131015Z AUTO 15004KT 10SM CLR 19/16 A3008 RMK AO2
KDNS 130955Z AUTO 00000KT 10SM CLR 18/16 A3009 RMK AO2
KDNS 130935Z AUTO 00000KT 10SM CLR 18/16 A3009 RMK AO2
KDNS 130915Z AUTO 00000KT 10SM CLR 18/16 A3008 RMK AO2
KDNS 130855Z AUTO 00000KT 10SM CLR 18/16 A3009 RMK AO2
KDNS 130835Z AUTO 00000KT 10SM CLR 18/16 A3009 RMK AO2
KDNS 130815Z AUTO 00000KT 10SM CLR 18/16 A3009 RMK AO2
KDNS 130755Z AUTO 00000KT 10SM CLR 18/16 A3009 RMK AO2